sensor_id;sensor_type;location;lat;lon;timestamp;P1;durP1;ratioP1;P2;durP2;ratioP2
81807;SDS011;71241;13.676;100.700;2023-12-22T00:01:19;5.28;;;3.90;;
81807;SDS011;71241;13.676;100.700;2023-12-22T00:03:49;5.60;;;4.75;;
81807;SDS011;71241;13.676;100.700;2023-12-22T00:06:20;6.50;;;5.43;;
81807;SDS011;71241;13.676;100.700;2023-12-22T00:08:51;9.93;;;8.90;;
81807;SDS011;71241;13.676;100.700;2023-12-22T00:11:23;9.50;;;5.82;;
81807;SDS011;71241;13.676;100.700;2023-12-22T00:13:55;6.75;;;5.00;;
81807;SDS011;71241;13.676;100.700;2023-12-22T00:16:25;6.88;;;5.03;;
81807;SDS011;71241;13.676;100.700;2023-12-22T00:18:56;7.32;;;6.72;;
81807;SDS011;71241;13.676;100.700;2023-12-22T00:21:30;5.25;;;4.70;;
81807;SDS011;71241;13.676;100.700;2023-12-22T00:24:00;6.88;;;5.20;;
81807;SDS011;71241;13.676;100.700;2023-12-22T00:26:33;7.00;;;6.28;;
81807;SDS011;71241;13.676;100.700;2023-12-22T00:29:03;7.20;;;6.43;;
81807;SDS011;71241;13.676;100.700;2023-12-22T00:31:34;6.93;;;6.22;;
81807;SDS011;71241;13.676;100.700;2023-12-22T00:34:04;8.13;;;5.75;;
81807;SDS011;71241;13.676;100.700;2023-12-22T00:36:35;4.78;;;4.35;;
81807;SDS011;71241;13.676;100.700;2023-12-22T00:39:05;5.38;;;4.78;;
81807;SDS011;71241;13.676;100.700;2023-12-22T00:41:38;7.93;;;5.43;;
81807;SDS011;71241;13.676;100.700;2023-12-22T00:44:08;9.20;;;5.68;;
81807;SDS011;71241;13.676;100.700;2023-12-22T00:46:39;5.25;;;4.85;;
81807;SDS011;71241;13.676;100.700;2023-12-22T00:49:10;8.13;;;6.25;;
81807;SDS011;71241;13.676;100.700;2023-12-22T00:51:40;6.28;;;4.82;;
81807;SDS011;71241;13.676;100.700;2023-12-22T00:54:11;10.63;;;4.65;;
81807;SDS011;71241;13.676;100.700;2023-12-22T00:56:43;7.03;;;6.18;;
81807;SDS011;71241;13.676;100.700;2023-12-22T00:59:14;7.07;;;5.88;;
81807;SDS011;71241;13.676;100.700;2023-12-22T01:01:44;6.07;;;5.15;;
81807;SDS011;71241;13.676;100.700;2023-12-22T01:04:20;8.52;;;5.60;;
81807;SDS011;71241;13.676;100.700;2023-12-22T01:06:51;5.75;;;4.90;;
81807;SDS011;71241;13.676;100.700;2023-12-22T01:09:22;10.82;;;4.20;;
81807;SDS011;71241;13.676;100.700;2023-12-22T01:11:54;4.93;;;4.47;;
81807;SDS011;71241;13.676;100.700;2023-12-22T01:14:28;6.38;;;5.05;;
81807;SDS011;71241;13.676;100.700;2023-12-22T01:16:58;5.15;;;4.65;;
81807;SDS011;71241;13.676;100.700;2023-12-22T01:19:32;7.40;;;6.70;;
81807;SDS011;71241;13.676;100.700;2023-12-22T01:22:05;5.95;;;4.85;;
81807;SDS011;71241;13.676;100.700;2023-12-22T01:24:36;8.15;;;4.82;;
81807;SDS011;71241;13.676;100.700;2023-12-22T01:27:11;9.00;;;7.85;;
81807;SDS011;71241;13.676;100.700;2023-12-22T01:29:42;6.68;;;5.72;;
81807;SDS011;71241;13.676;100.700;2023-12-22T01:32:17;7.70;;;5.47;;
81807;SDS011;71241;13.676;100.700;2023-12-22T01:34:48;7.05;;;4.47;;
81807;SDS011;71241;13.676;100.700;2023-12-22T01:37:19;8.38;;;5.00;;
81807;SDS011;71241;13.676;100.700;2023-12-22T01:39:49;5.70;;;4.68;;
81807;SDS011;71241;13.676;100.700;2023-12-22T01:42:22;6.32;;;4.95;;
81807;SDS011;71241;13.676;100.700;2023-12-22T01:44:54;5.55;;;4.68;;
81807;SDS011;71241;13.676;100.700;2023-12-22T01:47:25;6.03;;;4.72;;
81807;SDS011;71241;13.676;100.700;2023-12-22T01:49:58;8.48;;;4.50;;
81807;SDS011;71241;13.676;100.700;2023-12-22T01:52:32;5.65;;;4.95;;
81807;SDS011;71241;13.676;100.700;2023-12-22T01:55:07;5.00;;;4.35;;
81807;SDS011;71241;13.676;100.700;2023-12-22T01:57:42;6.65;;;3.90;;
81807;SDS011;71241;13.676;100.700;2023-12-22T02:00:14;5.30;;;4.32;;
81807;SDS011;71241;13.676;100.700;2023-12-22T02:02:45;8.95;;;5.43;;
81807;SDS011;71241;13.676;100.700;2023-12-22T02:05:17;12.07;;;5.18;;
81807;SDS011;71241;13.676;100.700;2023-12-22T02:07:48;7.07;;;5.15;;
81807;SDS011;71241;13.676;100.700;2023-12-22T02:10:23;5.55;;;4.65;;
81807;SDS011;71241;13.676;100.700;2023-12-22T02:12:58;6.68;;;5.10;;
81807;SDS011;71241;13.676;100.700;2023-12-22T02:15:31;8.50;;;5.38;;
81807;SDS011;71241;13.676;100.700;2023-12-22T02:18:02;5.47;;;4.65;;
81807;SDS011;71241;13.676;100.700;2023-12-22T02:20:35;7.28;;;4.82;;
81807;SDS011;71241;13.676;100.700;2023-12-22T02:23:08;7.28;;;4.82;;
81807;SDS011;71241;13.676;100.700;2023-12-22T02:25:38;10.45;;;5.10;;
81807;SDS011;71241;13.676;100.700;2023-12-22T02:28:09;6.25;;;4.20;;
81807;SDS011;71241;13.676;100.700;2023-12-22T02:30:45;7.60;;;7.00;;
81807;SDS011;71241;13.676;100.700;2023-12-22T02:33:20;7.00;;;5.18;;
81807;SDS011;71241;13.676;100.700;2023-12-22T02:35:56;9.48;;;8.65;;
81807;SDS011;71241;13.676;100.700;2023-12-22T02:38:35;8.48;;;7.93;;
81807;SDS011;71241;13.676;100.700;2023-12-22T02:41:08;10.23;;;9.25;;
81807;SDS011;71241;13.676;100.700;2023-12-22T02:46:13;9.88;;;8.85;;
81807;SDS011;71241;13.676;100.700;2023-12-22T02:48:44;5.00;;;4.50;;
81807;SDS011;71241;13.676;100.700;2023-12-22T02:51:15;6.82;;;4.10;;
81807;SDS011;71241;13.676;100.700;2023-12-22T02:53:47;6.05;;;4.47;;
81807;SDS011;71241;13.676;100.700;2023-12-22T02:56:17;9.52;;;4.50;;
81807;SDS011;71241;13.676;100.700;2023-12-22T02:58:48;8.45;;;4.15;;
81807;SDS011;71241;13.676;100.700;2023-12-22T03:01:19;3.83;;;3.40;;
81807;SDS011;71241;13.676;100.700;2023-12-22T03:03:50;10.60;;;4.30;;
81807;SDS011;71241;13.676;100.700;2023-12-22T03:06:21;8.38;;;3.88;;
81807;SDS011;71241;13.676;100.700;2023-12-22T03:08:53;10.23;;;4.07;;
81807;SDS011;71241;13.676;100.700;2023-12-22T03:11:24;6.88;;;3.70;;
81807;SDS011;71241;13.676;100.700;2023-12-22T03:13:54;6.82;;;5.25;;
81807;SDS011;71241;13.676;100.700;2023-12-22T03:16:25;4.82;;;4.28;;
81807;SDS011;71241;13.676;100.700;2023-12-22T03:18:55;4.57;;;3.35;;
81807;SDS011;71241;13.676;100.700;2023-12-22T03:21:26;8.82;;;3.50;;
81807;SDS011;71241;13.676;100.700;2023-12-22T03:23:58;5.85;;;3.67;;
81807;SDS011;71241;13.676;100.700;2023-12-22T03:26:31;8.27;;;3.97;;
81807;SDS011;71241;13.676;100.700;2023-12-22T03:29:01;5.13;;;3.92;;
81807;SDS011;71241;13.676;100.700;2023-12-22T03:31:32;5.28;;;3.72;;
81807;SDS011;71241;13.676;100.700;2023-12-22T03:34:03;12.35;;;4.35;;
81807;SDS011;71241;13.676;100.700;2023-12-22T03:36:34;7.45;;;4.25;;
81807;SDS011;71241;13.676;100.700;2023-12-22T03:39:06;7.68;;;4.65;;
81807;SDS011;71241;13.676;100.700;2023-12-22T03:41:37;4.82;;;4.30;;
81807;SDS011;71241;13.676;100.700;2023-12-22T03:44:07;13.15;;;3.95;;
81807;SDS011;71241;13.676;100.700;2023-12-22T03:46:38;7.18;;;6.57;;
81807;SDS011;71241;13.676;100.700;2023-12-22T03:49:08;7.95;;;6.38;;
81807;SDS011;71241;13.676;100.700;2023-12-22T03:51:39;5.53;;;4.82;;
81807;SDS011;71241;13.676;100.700;2023-12-22T03:54:12;7.65;;;4.30;;
81807;SDS011;71241;13.676;100.700;2023-12-22T03:56:45;8.38;;;4.40;;
81807;SDS011;71241;13.676;100.700;2023-12-22T03:59:15;4.72;;;4.20;;
81807;SDS011;71241;13.676;100.700;2023-12-22T04:01:50;6.32;;;4.78;;
81807;SDS011;71241;13.676;100.700;2023-12-22T04:04:22;4.68;;;4.20;;
81807;SDS011;71241;13.676;100.700;2023-12-22T04:06:56;5.32;;;4.80;;
81807;SDS011;71241;13.676;100.700;2023-12-22T04:09:28;6.82;;;4.72;;
81807;SDS011;71241;13.676;100.700;2023-12-22T04:11:59;5.95;;;4.57;;
81807;SDS011;71241;13.676;100.700;2023-12-22T04:14:30;5.93;;;4.43;;
81807;SDS011;71241;13.676;100.700;2023-12-22T04:17:00;4.78;;;4.13;;
81807;SDS011;71241;13.676;100.700;2023-12-22T04:19:31;6.22;;;4.63;;
81807;SDS011;71241;13.676;100.700;2023-12-22T04:22:02;4.50;;;4.10;;
81807;SDS011;71241;13.676;100.700;2023-12-22T04:24:34;4.15;;;3.75;;
81807;SDS011;71241;13.676;100.700;2023-12-22T04:27:05;10.70;;;10.20;;
81807;SDS011;71241;13.676;100.700;2023-12-22T04:29:35;6.07;;;4.03;;
81807;SDS011;71241;13.676;100.700;2023-12-22T04:32:06;7.57;;;4.45;;
81807;SDS011;71241;13.676;100.700;2023-12-22T04:34:36;4.15;;;3.75;;
81807;SDS011;71241;13.676;100.700;2023-12-22T04:37:07;3.63;;;3.33;;
81807;SDS011;71241;13.676;100.700;2023-12-22T04:39:40;6.88;;;3.75;;
81807;SDS011;71241;13.676;100.700;2023-12-22T04:42:10;4.28;;;3.67;;
81807;SDS011;71241;13.676;100.700;2023-12-22T04:44:41;4.22;;;3.78;;
81807;SDS011;71241;13.676;100.700;2023-12-22T04:47:12;4.28;;;3.80;;
81807;SDS011;71241;13.676;100.700;2023-12-22T04:49:43;4.15;;;3.70;;
81807;SDS011;71241;13.676;100.700;2023-12-22T04:52:13;4.50;;;4.20;;
81807;SDS011;71241;13.676;100.700;2023-12-22T04:54:46;7.03;;;6.53;;
81807;SDS011;71241;13.676;100.700;2023-12-22T04:57:16;4.13;;;3.80;;
81807;SDS011;71241;13.676;100.700;2023-12-22T04:59:49;4.97;;;4.40;;
81807;SDS011;71241;13.676;100.700;2023-12-22T05:02:19;5.07;;;4.55;;
81807;SDS011;71241;13.676;100.700;2023-12-22T05:04:54;7.50;;;4.95;;
81807;SDS011;71241;13.676;100.700;2023-12-22T05:07:25;4.57;;;4.18;;
81807;SDS011;71241;13.676;100.700;2023-12-22T05:09:58;7.30;;;6.07;;
81807;SDS011;71241;13.676;100.700;2023-12-22T05:12:29;7.07;;;5.22;;
81807;SDS011;71241;13.676;100.700;2023-12-22T05:15:00;5.70;;;4.45;;
81807;SDS011;71241;13.676;100.700;2023-12-22T05:17:31;5.40;;;4.28;;
81807;SDS011;71241;13.676;100.700;2023-12-22T05:20:02;4.68;;;4.28;;
81807;SDS011;71241;13.676;100.700;2023-12-22T05:22:33;7.80;;;5.00;;
81807;SDS011;71241;13.676;100.700;2023-12-22T05:25:06;10.25;;;4.57;;
81807;SDS011;71241;13.676;100.700;2023-12-22T05:27:39;4.70;;;4.30;;
81807;SDS011;71241;13.676;100.700;2023-12-22T05:30:12;7.32;;;4.82;;
81807;SDS011;71241;13.676;100.700;2023-12-22T05:32:44;9.18;;;8.57;;
81807;SDS011;71241;13.676;100.700;2023-12-22T05:35:15;4.85;;;4.25;;
81807;SDS011;71241;13.676;100.700;2023-12-22T05:37:45;7.45;;;4.40;;
81807;SDS011;71241;13.676;100.700;2023-12-22T05:40:19;8.75;;;4.22;;
81807;SDS011;71241;13.676;100.700;2023-12-22T05:42:50;6.05;;;4.75;;
81807;SDS011;71241;13.676;100.700;2023-12-22T05:45:20;6.80;;;5.10;;
81807;SDS011;71241;13.676;100.700;2023-12-22T05:47:51;6.57;;;5.50;;
81807;SDS011;71241;13.676;100.700;2023-12-22T05:50:22;7.05;;;4.63;;
81807;SDS011;71241;13.676;100.700;2023-12-22T05:52:52;6.70;;;5.07;;
81807;SDS011;71241;13.676;100.700;2023-12-22T05:55:25;5.72;;;5.15;;
81807;SDS011;71241;13.676;100.700;2023-12-22T05:57:56;5.57;;;5.03;;
81807;SDS011;71241;13.676;100.700;2023-12-22T06:00:26;10.13;;;5.03;;
81807;SDS011;71241;13.676;100.700;2023-12-22T06:02:57;4.72;;;3.60;;
81807;SDS011;71241;13.676;100.700;2023-12-22T06:05:29;4.97;;;4.20;;
81807;SDS011;71241;13.676;100.700;2023-12-22T06:08:02;5.50;;;4.57;;
81807;SDS011;71241;13.676;100.700;2023-12-22T06:10:34;5.80;;;4.22;;
81807;SDS011;71241;13.676;100.700;2023-12-22T06:13:05;4.65;;;4.18;;
81807;SDS011;71241;13.676;100.700;2023-12-22T06:15:36;4.88;;;4.38;;
81807;SDS011;71241;13.676;100.700;2023-12-22T06:18:06;5.00;;;4.47;;
81807;SDS011;71241;13.676;100.700;2023-12-22T06:20:37;5.13;;;4.63;;
81807;SDS011;71241;13.676;100.700;2023-12-22T06:23:07;4.20;;;3.80;;
81807;SDS011;71241;13.676;100.700;2023-12-22T06:25:40;5.47;;;3.75;;
81807;SDS011;71241;13.676;100.700;2023-12-22T06:28:10;4.82;;;3.85;;
81807;SDS011;71241;13.676;100.700;2023-12-22T06:30:41;4.78;;;4.10;;
81807;SDS011;71241;13.676;100.700;2023-12-22T06:33:13;6.32;;;4.53;;
81807;SDS011;71241;13.676;100.700;2023-12-22T06:35:43;5.35;;;4.00;;
81807;SDS011;71241;13.676;100.700;2023-12-22T06:38:14;5.57;;;4.25;;
81807;SDS011;71241;13.676;100.700;2023-12-22T06:40:46;5.93;;;3.70;;
81807;SDS011;71241;13.676;100.700;2023-12-22T06:43:17;4.80;;;4.28;;
81807;SDS011;71241;13.676;100.700;2023-12-22T06:45:47;6.38;;;4.32;;
81807;SDS011;71241;13.676;100.700;2023-12-22T06:48:18;5.72;;;4.40;;
81807;SDS011;71241;13.676;100.700;2023-12-22T06:50:49;6.18;;;3.75;;
81807;SDS011;71241;13.676;100.700;2023-12-22T06:53:19;8.40;;;6.43;;
81807;SDS011;71241;13.676;100.700;2023-12-22T06:55:54;5.28;;;4.88;;
81807;SDS011;71241;13.676;100.700;2023-12-22T06:58:25;5.47;;;4.95;;
81807;SDS011;71241;13.676;100.700;2023-12-22T07:00:56;4.80;;;4.25;;
81807;SDS011;71241;13.676;100.700;2023-12-22T07:03:26;4.38;;;3.97;;
81807;SDS011;71241;13.676;100.700;2023-12-22T07:05:58;4.47;;;3.92;;
81807;SDS011;71241;13.676;100.700;2023-12-22T07:08:29;7.07;;;4.13;;
81807;SDS011;71241;13.676;100.700;2023-12-22T07:11:01;5.68;;;5.20;;
81807;SDS011;71241;13.676;100.700;2023-12-22T07:13:32;5.00;;;4.60;;
81807;SDS011;71241;13.676;100.700;2023-12-22T07:16:02;4.50;;;4.20;;
81807;SDS011;71241;13.676;100.700;2023-12-22T07:18:33;5.35;;;4.88;;
81807;SDS011;71241;13.676;100.700;2023-12-22T07:21:04;4.90;;;4.50;;
81807;SDS011;71241;13.676;100.700;2023-12-22T07:23:34;7.20;;;5.15;;
81807;SDS011;71241;13.676;100.700;2023-12-22T07:26:07;5.43;;;4.93;;
81807;SDS011;71241;13.676;100.700;2023-12-22T07:28:37;5.38;;;4.97;;
81807;SDS011;71241;13.676;100.700;2023-12-22T07:31:08;6.30;;;5.70;;
81807;SDS011;71241;13.676;100.700;2023-12-22T07:33:39;7.95;;;5.30;;
81807;SDS011;71241;13.676;100.700;2023-12-22T07:36:10;7.20;;;5.28;;
81807;SDS011;71241;13.676;100.700;2023-12-22T07:38:41;7.35;;;5.45;;
81807;SDS011;71241;13.676;100.700;2023-12-22T07:41:13;5.65;;;5.07;;
81807;SDS011;71241;13.676;100.700;2023-12-22T07:43:45;6.18;;;4.95;;
81807;SDS011;71241;13.676;100.700;2023-12-22T07:46:17;5.15;;;4.65;;
81807;SDS011;71241;13.676;100.700;2023-12-22T07:48:48;6.00;;;5.45;;
81807;SDS011;71241;13.676;100.700;2023-12-22T07:51:19;6.53;;;5.45;;
81807;SDS011;71241;13.676;100.700;2023-12-22T07:53:50;5.63;;;5.07;;
81807;SDS011;71241;13.676;100.700;2023-12-22T07:56:22;6.85;;;5.10;;
81807;SDS011;71241;13.676;100.700;2023-12-22T07:58:53;6.05;;;5.00;;
81807;SDS011;71241;13.676;100.700;2023-12-22T08:01:40;6.25;;;5.55;;
81807;SDS011;71241;13.676;100.700;2023-12-22T08:04:10;8.05;;;5.05;;
81807;SDS011;71241;13.676;100.700;2023-12-22T08:06:43;5.18;;;4.68;;
81807;SDS011;71241;13.676;100.700;2023-12-22T08:09:14;5.22;;;4.72;;
81807;SDS011;71241;13.676;100.700;2023-12-22T08:11:47;7.28;;;5.38;;
81807;SDS011;71241;13.676;100.700;2023-12-22T08:14:21;6.45;;;5.85;;
81807;SDS011;71241;13.676;100.700;2023-12-22T08:16:52;6.40;;;5.07;;
81807;SDS011;71241;13.676;100.700;2023-12-22T08:19:23;7.00;;;5.00;;
81807;SDS011;71241;13.676;100.700;2023-12-22T08:21:58;6.40;;;5.10;;
81807;SDS011;71241;13.676;100.700;2023-12-22T08:24:33;8.45;;;5.07;;
81807;SDS011;71241;13.676;100.700;2023-12-22T08:27:05;6.40;;;5.80;;
81807;SDS011;71241;13.676;100.700;2023-12-22T08:29:36;10.05;;;6.22;;
81807;SDS011;71241;13.676;100.700;2023-12-22T08:32:07;10.27;;;6.20;;
81807;SDS011;71241;13.676;100.700;2023-12-22T08:34:40;7.43;;;6.72;;
81807;SDS011;71241;13.676;100.700;2023-12-22T08:37:11;7.38;;;6.18;;
81807;SDS011;71241;13.676;100.700;2023-12-22T08:39:42;7.53;;;6.72;;
81807;SDS011;71241;13.676;100.700;2023-12-22T08:42:14;7.03;;;6.22;;
81807;SDS011;71241;13.676;100.700;2023-12-22T08:44:45;10.68;;;6.05;;
81807;SDS011;71241;13.676;100.700;2023-12-22T08:47:15;7.03;;;6.43;;
81807;SDS011;71241;13.676;100.700;2023-12-22T08:49:46;10.77;;;7.25;;
81807;SDS011;71241;13.676;100.700;2023-12-22T08:52:16;7.50;;;6.82;;
81807;SDS011;71241;13.676;100.700;2023-12-22T08:54:47;9.52;;;7.53;;
81807;SDS011;71241;13.676;100.700;2023-12-22T08:57:19;8.30;;;7.47;;
81807;SDS011;71241;13.676;100.700;2023-12-22T08:59:50;8.50;;;6.45;;
81807;SDS011;71241;13.676;100.700;2023-12-22T09:02:21;13.23;;;7.43;;
81807;SDS011;71241;13.676;100.700;2023-12-22T09:04:52;11.88;;;7.90;;
81807;SDS011;71241;13.676;100.700;2023-12-22T09:07:23;10.18;;;7.38;;
81807;SDS011;71241;13.676;100.700;2023-12-22T09:09:53;9.70;;;7.47;;
81807;SDS011;71241;13.676;100.700;2023-12-22T09:12:26;8.18;;;7.38;;
81807;SDS011;71241;13.676;100.700;2023-12-22T09:14:57;9.95;;;6.55;;
81807;SDS011;71241;13.676;100.700;2023-12-22T09:17:28;10.23;;;7.38;;
81807;SDS011;71241;13.676;100.700;2023-12-22T09:19:58;11.07;;;6.57;;
81807;SDS011;71241;13.676;100.700;2023-12-22T09:22:29;12.05;;;6.97;;
81807;SDS011;71241;13.676;100.700;2023-12-22T09:25:01;7.63;;;6.82;;
81807;SDS011;71241;13.676;100.700;2023-12-22T09:27:33;8.85;;;7.15;;
81807;SDS011;71241;13.676;100.700;2023-12-22T09:30:04;13.25;;;7.43;;
81807;SDS011;71241;13.676;100.700;2023-12-22T09:32:36;8.13;;;7.10;;
81807;SDS011;71241;13.676;100.700;2023-12-22T09:35:07;7.00;;;6.05;;
81807;SDS011;71241;13.676;100.700;2023-12-22T09:37:37;7.32;;;6.13;;
81807;SDS011;71241;13.676;100.700;2023-12-22T09:40:08;6.60;;;6.00;;
81807;SDS011;71241;13.676;100.700;2023-12-22T09:42:42;7.95;;;5.45;;
81807;SDS011;71241;13.676;100.700;2023-12-22T09:45:14;9.63;;;6.38;;
81807;SDS011;71241;13.676;100.700;2023-12-22T09:47:48;7.65;;;6.63;;
81807;SDS011;71241;13.676;100.700;2023-12-22T09:50:20;11.45;;;6.15;;
81807;SDS011;71241;13.676;100.700;2023-12-22T09:52:52;7.88;;;7.07;;
81807;SDS011;71241;13.676;100.700;2023-12-22T09:55:22;9.35;;;7.03;;
81807;SDS011;71241;13.676;100.700;2023-12-22T09:57:55;10.23;;;6.70;;
81807;SDS011;71241;13.676;100.700;2023-12-22T10:00:27;10.73;;;7.43;;
81807;SDS011;71241;13.676;100.700;2023-12-22T10:02:59;11.23;;;7.45;;
81807;SDS011;71241;13.676;100.700;2023-12-22T10:05:32;13.02;;;9.52;;
81807;SDS011;71241;13.676;100.700;2023-12-22T10:08:03;10.07;;;7.80;;
81807;SDS011;71241;13.676;100.700;2023-12-22T10:10:35;11.02;;;8.85;;
81807;SDS011;71241;13.676;100.700;2023-12-22T10:13:07;11.18;;;8.50;;
81807;SDS011;71241;13.676;100.700;2023-12-22T10:15:39;9.68;;;8.30;;
81807;SDS011;71241;13.676;100.700;2023-12-22T10:18:12;9.90;;;7.05;;
81807;SDS011;71241;13.676;100.700;2023-12-22T10:20:43;10.15;;;8.13;;
81807;SDS011;71241;13.676;100.700;2023-12-22T10:23:15;10.85;;;8.00;;
81807;SDS011;71241;13.676;100.700;2023-12-22T10:25:45;11.88;;;7.35;;
81807;SDS011;71241;13.676;100.700;2023-12-22T10:28:18;12.98;;;8.05;;
81807;SDS011;71241;13.676;100.700;2023-12-22T10:30:53;13.57;;;8.15;;
81807;SDS011;71241;13.676;100.700;2023-12-22T10:33:25;14.77;;;8.43;;
81807;SDS011;71241;13.676;100.700;2023-12-22T10:35:56;10.25;;;7.32;;
81807;SDS011;71241;13.676;100.700;2023-12-22T10:38:27;11.82;;;8.48;;
81807;SDS011;71241;13.676;100.700;2023-12-22T10:41:04;12.10;;;8.00;;
81807;SDS011;71241;13.676;100.700;2023-12-22T10:43:39;9.60;;;7.50;;
81807;SDS011;71241;13.676;100.700;2023-12-22T10:46:10;12.20;;;8.18;;
81807;SDS011;71241;13.676;100.700;2023-12-22T10:48:45;12.32;;;8.07;;
81807;SDS011;71241;13.676;100.700;2023-12-22T10:51:15;11.55;;;7.97;;
81807;SDS011;71241;13.676;100.700;2023-12-22T10:53:50;11.77;;;8.18;;
81807;SDS011;71241;13.676;100.700;2023-12-22T10:56:21;9.38;;;6.80;;
81807;SDS011;71241;13.676;100.700;2023-12-22T10:58:53;10.57;;;7.57;;
81807;SDS011;71241;13.676;100.700;2023-12-22T11:01:25;11.07;;;7.82;;
81807;SDS011;71241;13.676;100.700;2023-12-22T11:04:01;11.15;;;8.00;;
81807;SDS011;71241;13.676;100.700;2023-12-22T11:06:34;14.85;;;8.85;;
81807;SDS011;71241;13.676;100.700;2023-12-22T11:09:07;14.50;;;9.23;;
81807;SDS011;71241;13.676;100.700;2023-12-22T11:11:38;15.00;;;9.30;;
81807;SDS011;71241;13.676;100.700;2023-12-22T11:14:11;16.80;;;10.38;;
81807;SDS011;71241;13.676;100.700;2023-12-22T11:16:42;17.33;;;15.73;;
81807;SDS011;71241;13.676;100.700;2023-12-22T11:19:16;18.30;;;16.40;;
81807;SDS011;71241;13.676;100.700;2023-12-22T11:21:48;14.68;;;13.18;;
81807;SDS011;71241;13.676;100.700;2023-12-22T11:24:20;20.63;;;12.63;;
81807;SDS011;71241;13.676;100.700;2023-12-22T11:26:52;14.27;;;12.68;;
81807;SDS011;71241;13.676;100.700;2023-12-22T11:29:25;15.15;;;13.35;;
81807;SDS011;71241;13.676;100.700;2023-12-22T11:34:26;20.45;;;13.57;;
81807;SDS011;71241;13.676;100.700;2023-12-22T11:36:58;14.70;;;13.15;;
81807;SDS011;71241;13.676;100.700;2023-12-22T11:39:29;20.50;;;11.38;;
81807;SDS011;71241;13.676;100.700;2023-12-22T11:41:59;17.90;;;16.05;;
81807;SDS011;71241;13.676;100.700;2023-12-22T11:44:34;17.73;;;13.88;;
81807;SDS011;71241;13.676;100.700;2023-12-22T11:47:06;17.38;;;14.07;;
81807;SDS011;71241;13.676;100.700;2023-12-22T11:49:39;19.45;;;16.05;;
81807;SDS011;71241;13.676;100.700;2023-12-22T11:52:11;20.58;;;16.38;;
81807;SDS011;71241;13.676;100.700;2023-12-22T11:54:48;16.02;;;12.18;;
81807;SDS011;71241;13.676;100.700;2023-12-22T11:57:33;13.25;;;11.80;;
81807;SDS011;71241;13.676;100.700;2023-12-22T12:03:08;15.05;;;11.68;;
81807;SDS011;71241;13.676;100.700;2023-12-22T12:05:42;10.45;;;9.18;;
81807;SDS011;71241;13.676;100.700;2023-12-22T12:08:13;10.73;;;9.32;;
81807;SDS011;71241;13.676;100.700;2023-12-22T12:10:52;9.27;;;8.38;;
81807;SDS011;71241;13.676;100.700;2023-12-22T12:13:23;9.57;;;8.57;;
81807;SDS011;71241;13.676;100.700;2023-12-22T12:15:57;13.73;;;10.60;;
81807;SDS011;71241;13.676;100.700;2023-12-22T12:18:30;9.63;;;8.77;;
81807;SDS011;71241;13.676;100.700;2023-12-22T12:21:05;12.40;;;10.55;;
81807;SDS011;71241;13.676;100.700;2023-12-22T12:23:37;10.85;;;9.68;;
81807;SDS011;71241;13.676;100.700;2023-12-22T12:26:08;12.68;;;11.63;;
81807;SDS011;71241;13.676;100.700;2023-12-22T12:28:47;9.60;;;8.00;;
81807;SDS011;71241;13.676;100.700;2023-12-22T12:31:21;10.43;;;9.32;;
81807;SDS011;71241;13.676;100.700;2023-12-22T12:34:12;8.55;;;7.68;;
81807;SDS011;71241;13.676;100.700;2023-12-22T12:36:50;9.68;;;8.75;;
81807;SDS011;71241;13.676;100.700;2023-12-22T12:39:21;8.27;;;7.47;;
81807;SDS011;71241;13.676;100.700;2023-12-22T12:41:57;8.55;;;7.70;;
81807;SDS011;71241;13.676;100.700;2023-12-22T12:44:31;11.43;;;7.25;;
81807;SDS011;71241;13.676;100.700;2023-12-22T12:47:13;7.93;;;6.35;;
81807;SDS011;71241;13.676;100.700;2023-12-22T12:49:44;9.82;;;6.95;;
81807;SDS011;71241;13.676;100.700;2023-12-22T12:52:15;14.23;;;6.95;;
81807;SDS011;71241;13.676;100.700;2023-12-22T12:54:46;12.25;;;11.02;;
81807;SDS011;71241;13.676;100.700;2023-12-22T12:57:17;11.15;;;9.90;;
81807;SDS011;71241;13.676;100.700;2023-12-22T12:59:48;13.63;;;12.52;;
81807;SDS011;71241;13.676;100.700;2023-12-22T13:02:21;11.13;;;8.25;;
81807;SDS011;71241;13.676;100.700;2023-12-22T13:04:53;12.15;;;10.95;;
81807;SDS011;71241;13.676;100.700;2023-12-22T13:07:28;16.30;;;11.75;;
81807;SDS011;71241;13.676;100.700;2023-12-22T13:09:59;7.82;;;6.70;;
81807;SDS011;71241;13.676;100.700;2023-12-22T13:12:31;11.85;;;8.43;;
81807;SDS011;71241;13.676;100.700;2023-12-22T13:15:02;7.45;;;6.75;;
81807;SDS011;71241;13.676;100.700;2023-12-22T13:17:35;10.93;;;6.55;;
81807;SDS011;71241;13.676;100.700;2023-12-22T13:20:08;9.65;;;7.25;;
81807;SDS011;71241;13.676;100.700;2023-12-22T13:22:40;11.25;;;10.15;;
81807;SDS011;71241;13.676;100.700;2023-12-22T13:25:11;13.88;;;12.00;;
81807;SDS011;71241;13.676;100.700;2023-12-22T13:27:45;10.13;;;8.80;;
81807;SDS011;71241;13.676;100.700;2023-12-22T13:30:31;9.93;;;8.90;;
81807;SDS011;71241;13.676;100.700;2023-12-22T13:33:04;10.15;;;5.40;;
81807;SDS011;71241;13.676;100.700;2023-12-22T13:35:34;10.00;;;4.40;;
81807;SDS011;71241;13.676;100.700;2023-12-22T13:38:10;10.57;;;5.10;;
81807;SDS011;71241;13.676;100.700;2023-12-22T13:40:44;9.93;;;6.57;;
81807;SDS011;71241;13.676;100.700;2023-12-22T13:43:18;8.00;;;5.88;;
81807;SDS011;71241;13.676;100.700;2023-12-22T13:45:49;11.15;;;4.82;;
81807;SDS011;71241;13.676;100.700;2023-12-22T13:48:22;7.32;;;5.03;;
81807;SDS011;71241;13.676;100.700;2023-12-22T13:50:57;11.95;;;5.50;;
81807;SDS011;71241;13.676;100.700;2023-12-22T13:53:34;7.50;;;5.13;;
81807;SDS011;71241;13.676;100.700;2023-12-22T13:58:43;8.98;;;5.43;;
81807;SDS011;71241;13.676;100.700;2023-12-22T14:01:15;9.15;;;6.97;;
81807;SDS011;71241;13.676;100.700;2023-12-22T14:03:47;7.95;;;6.68;;
81807;SDS011;71241;13.676;100.700;2023-12-22T14:06:19;10.20;;;9.13;;
81807;SDS011;71241;13.676;100.700;2023-12-22T14:08:50;11.25;;;9.05;;
81807;SDS011;71241;13.676;100.700;2023-12-22T14:11:21;10.27;;;5.53;;
81807;SDS011;71241;13.676;100.700;2023-12-22T14:13:52;9.35;;;8.38;;
81807;SDS011;71241;13.676;100.700;2023-12-22T14:16:23;12.23;;;8.63;;
81807;SDS011;71241;13.676;100.700;2023-12-22T14:19:11;10.25;;;8.15;;
81807;SDS011;71241;13.676;100.700;2023-12-22T14:21:42;12.65;;;9.38;;
81807;SDS011;71241;13.676;100.700;2023-12-22T14:24:12;9.77;;;8.57;;
81807;SDS011;71241;13.676;100.700;2023-12-22T14:26:52;12.13;;;11.02;;
81807;SDS011;71241;13.676;100.700;2023-12-22T14:29:24;11.55;;;10.65;;
81807;SDS011;71241;13.676;100.700;2023-12-22T14:31:54;12.35;;;8.55;;
81807;SDS011;71241;13.676;100.700;2023-12-22T14:34:30;9.20;;;5.55;;
81807;SDS011;71241;13.676;100.700;2023-12-22T14:37:01;8.07;;;6.20;;
81807;SDS011;71241;13.676;100.700;2023-12-22T14:39:32;9.43;;;6.45;;
81807;SDS011;71241;13.676;100.700;2023-12-22T14:42:04;10.40;;;6.57;;
81807;SDS011;71241;13.676;100.700;2023-12-22T14:44:35;7.60;;;5.38;;
81807;SDS011;71241;13.676;100.700;2023-12-22T14:47:07;11.07;;;6.68;;
81807;SDS011;71241;13.676;100.700;2023-12-22T14:49:42;8.10;;;5.45;;
81807;SDS011;71241;13.676;100.700;2023-12-22T14:52:13;11.23;;;10.15;;
81807;SDS011;71241;13.676;100.700;2023-12-22T14:54:44;10.18;;;9.32;;